Airway Heights, WA (99001)

3:34 AM PDT on August 04, 2015 (GMT -0700)
Spokane International | | Change Station
CLOSE
Current Station
Airport
Location: Spokane,
Elevation: 2365 ft
Nearby Weather Stations
Active Advisory: Fire Weather Warning

Elev 2365 ft 47.62 °N, 117.53 °W | Updated 41 minutes ago

Clear
Clear
70 °F
Feels Like 70 °F
N
6
Wind Variable Wind from South

Today
High -- | Low -- °F
--% Chance of Precip.
Yesterday
High -- | Low -- °F
Precip. -- in
5:31 AM 8:20 PM
Waning Gibbous, 79% visible
Pressure 29.81 in
Visibility 10.0 miles
Clouds Few 19000 ft
Dew Point 46 °F
Humidity 42%
Rainfall 0.00 in
Snow Depth Not available.
UV 0 out of 12
Pollen 6.60 out of 12
Air Quality Not available.
Flu Activity Not available.
METAR KGEG 040953Z 17005KT 10SM FEW190 21/08 A2987 RMK AO2 SLP094 T02110078

More Conditions Fewer Conditions

Pressure 29.81 in
Visibility 10.0 miles
Clouds Few 19000 ft
Dew Point 46 °F
Humidity 42%
Rainfall 0.00 in
Snow Depth Not available.
UV 0 out of 12
Pollen 6.60 out of 12
Air Quality Not available.
Flu Activity Not available.
METAR KGEG 040953Z 17005KT 10SM FEW190 21/08 A2987 RMK AO2 SLP094 T02110078

More Conditions Fewer Conditions

10-Day Weather Forecast

×

Almanac

Astronomy

Aug. 04, 2015 Rise Set
Actual Time
Civil Twilight
Nautical Twilight
Astronomical Twilight
Moon
Length of Visible Light
Length of Day
Tomorrow will be .
, % of the Moon is Illuminated

Today's Extremes

State Highs State Lows

Community

WunderPhotos

Upload Photos

1,843,883 photos uploaded!

WunderBlogs® & News

Nearby

Air Quality

  Air Quality AQ Index Pollutant
Not available.

Snow Depth

Station Depth Elevation

Earthquake Activity

City Distance Mag. Time & Date
Minimum magnitude displayed is 2.5.

Coastal Water Temperatures

Place Temperature

Stations

Nearby Weather Stations

Station Location Temp. Windchill Dew Point Humidity Wind Precip. Elev Updated Type
                   
Fire Weather Warning
Statement as of 9:59 PM PDT on August 03, 2015

... Red flag warning remains in effect until 9 PM PDT Wednesday
for wind and low relative humidity for fwz 677 (central Cascade
valleys)...

* affected area: fire weather zone 673 East Washington northern
Columbia Basin (zone 673)... fire weather zone 674 East
Washington Palouse (zone 674)... fire weather zone 676 East
Washington south central Cascade valleys (zone 676) and fire
weather zone 677 East Washington central Cascade valleys (zone
677).

* Winds: west 10 to 20 mph with gusts up to 30 mph.

* Relative humidities: 12 to 20 percent.

* Impacts: rapid fire spread is possible with any new or ongoing
fires.

Precautionary/preparedness actions...

A red flag warning means that critical fire weather conditions
are either occurring now... or will shortly. A combination of
strong winds... low relative humidity... and warm temperatures will
create extreme fire growth potential.